sensor_id;sensor_type;location;lat;lon;timestamp;pressure;altitude;pressure_sealevel;temperature
49154;BMP280;49455;52.252;9.124;2023-03-01T00:02:10;101071.03;;;-0.94
49154;BMP280;49455;52.252;9.124;2023-03-01T00:07:10;101073.31;;;-0.97
49154;BMP280;49455;52.252;9.124;2023-03-01T00:12:11;101074.03;;;-0.98
49154;BMP280;49455;52.252;9.124;2023-03-01T00:17:11;101072.97;;;-1.00
49154;BMP280;49455;52.252;9.124;2023-03-01T00:22:12;101074.22;;;-1.05
49154;BMP280;49455;52.252;9.124;2023-03-01T00:27:12;101068.88;;;-1.08
49154;BMP280;49455;52.252;9.124;2023-03-01T00:32:12;101080.69;;;-1.17
49154;BMP280;49455;52.252;9.124;2023-03-01T00:37:13;101082.94;;;-1.20
49154;BMP280;49455;52.252;9.124;2023-03-01T00:42:13;101085.94;;;-1.24
49154;BMP280;49455;52.252;9.124;2023-03-01T00:47:14;101070.78;;;-1.32
49154;BMP280;49455;52.252;9.124;2023-03-01T00:52:14;101075.25;;;-1.30
49154;BMP280;49455;52.252;9.124;2023-03-01T00:57:15;101065.25;;;-1.37
49154;BMP280;49455;52.252;9.124;2023-03-01T01:02:15;101064.81;;;-1.41
49154;BMP280;49455;52.252;9.124;2023-03-01T01:07:15;101054.44;;;-1.52
49154;BMP280;49455;52.252;9.124;2023-03-01T01:12:16;101052.66;;;-1.53
49154;BMP280;49455;52.252;9.124;2023-03-01T01:17:16;101055.63;;;-1.57
49154;BMP280;49455;52.252;9.124;2023-03-01T01:22:17;101052.78;;;-1.52
49154;BMP280;49455;52.252;9.124;2023-03-01T01:27:17;101048.34;;;-1.63
49154;BMP280;49455;52.252;9.124;2023-03-01T01:32:18;101043.19;;;-1.73
49154;BMP280;49455;52.252;9.124;2023-03-01T01:37:18;101032.59;;;-1.77
49154;BMP280;49455;52.252;9.124;2023-03-01T01:42:19;101034.38;;;-1.76
49154;BMP280;49455;52.252;9.124;2023-03-01T01:47:21;101037.38;;;-1.80
49154;BMP280;49455;52.252;9.124;2023-03-01T01:52:25;101030.38;;;-1.82
49154;BMP280;49455;52.252;9.124;2023-03-01T01:57:34;101030.56;;;-1.89
49154;BMP280;49455;52.252;9.124;2023-03-01T02:02:36;101029.81;;;-1.97
49154;BMP280;49455;52.252;9.124;2023-03-01T02:07:39;101035.63;;;-1.98
49154;BMP280;49455;52.252;9.124;2023-03-01T02:12:40;101036.84;;;-2.03
49154;BMP280;49455;52.252;9.124;2023-03-01T02:17:40;101028.34;;;-2.12
49154;BMP280;49455;52.252;9.124;2023-03-01T02:22:42;101029.09;;;-2.12
49154;BMP280;49455;52.252;9.124;2023-03-01T02:28:38;101020.94;;;-2.18
49154;BMP280;49455;52.252;9.124;2023-03-01T02:33:19;101024.19;;;-2.28
49154;BMP280;49455;52.252;9.124;2023-03-01T02:38:20;101019.31;;;-2.43
49154;BMP280;49455;52.252;9.124;2023-03-01T02:43:24;101014.97;;;-2.61
49154;BMP280;49455;52.252;9.124;2023-03-01T02:48:26;101011.09;;;-2.66
49154;BMP280;49455;52.252;9.124;2023-03-01T02:58:33;101010.09;;;-2.68
49154;BMP280;49455;52.252;9.124;2023-03-01T03:03:34;100991.31;;;-2.86
49154;BMP280;49455;52.252;9.124;2023-03-01T03:08:35;100992.91;;;-3.03
49154;BMP280;49455;52.252;9.124;2023-03-01T03:13:35;100989.06;;;-3.17
49154;BMP280;49455;52.252;9.124;2023-03-01T03:18:35;100988.16;;;-3.09
49154;BMP280;49455;52.252;9.124;2023-03-01T03:23:36;100992.91;;;-3.03
49154;BMP280;49455;52.252;9.124;2023-03-01T03:28:36;100973.91;;;-3.00
49154;BMP280;49455;52.252;9.124;2023-03-01T03:33:37;100967.34;;;-3.06
49154;BMP280;49455;52.252;9.124;2023-03-01T03:38:38;100967.63;;;-3.12
49154;BMP280;49455;52.252;9.124;2023-03-01T03:43:40;100966.63;;;-3.14
49154;BMP280;49455;52.252;9.124;2023-03-01T03:48:43;100961.56;;;-3.14
49154;BMP280;49455;52.252;9.124;2023-03-01T03:53:44;100955.56;;;-3.23
49154;BMP280;49455;52.252;9.124;2023-03-01T03:58:44;100964.22;;;-3.21
49154;BMP280;49455;52.252;9.124;2023-03-01T04:03:45;100958.53;;;-3.35
49154;BMP280;49455;52.252;9.124;2023-03-01T04:08:45;100958.06;;;-3.39
49154;BMP280;49455;52.252;9.124;2023-03-01T04:13:45;100958.06;;;-3.39
49154;BMP280;49455;52.252;9.124;2023-03-01T04:18:47;100959.22;;;-3.44
49154;BMP280;49455;52.252;9.124;2023-03-01T04:23:47;100964.53;;;-3.58
49154;BMP280;49455;52.252;9.124;2023-03-01T04:28:48;100958.91;;;-3.56
49154;BMP280;49455;52.252;9.124;2023-03-01T04:33:50;100966.63;;;-3.62
49154;BMP280;49455;52.252;9.124;2023-03-01T04:38:51;100961.72;;;-3.61
49154;BMP280;49455;52.252;9.124;2023-03-01T04:43:52;100967.06;;;-3.58
49154;BMP280;49455;52.252;9.124;2023-03-01T04:48:52;100969.44;;;-3.68
49154;BMP280;49455;52.252;9.124;2023-03-01T04:53:53;100974.03;;;-3.64
49154;BMP280;49455;52.252;9.124;2023-03-01T04:58:53;100966.00;;;-3.68
49154;BMP280;49455;52.252;9.124;2023-03-01T05:03:54;100962.56;;;-3.69
49154;BMP280;49455;52.252;9.124;2023-03-01T05:08:54;100958.38;;;-3.77
49154;BMP280;49455;52.252;9.124;2023-03-01T05:13:55;100951.88;;;-3.75
49154;BMP280;49455;52.252;9.124;2023-03-01T05:18:55;100951.72;;;-3.76
49154;BMP280;49455;52.252;9.124;2023-03-01T05:23:55;100947.97;;;-3.80
49154;BMP280;49455;52.252;9.124;2023-03-01T05:28:56;100952.06;;;-3.65
49154;BMP280;49455;52.252;9.124;2023-03-01T05:33:56;100949.66;;;-3.63
49154;BMP280;49455;52.252;9.124;2023-03-01T05:38:56;100952.00;;;-3.82
49154;BMP280;49455;52.252;9.124;2023-03-01T05:43:57;100944.63;;;-3.55
49154;BMP280;49455;52.252;9.124;2023-03-01T05:48:57;100941.28;;;-3.31
49154;BMP280;49455;52.252;9.124;2023-03-01T05:53:57;100941.00;;;-3.25
49154;BMP280;49455;52.252;9.124;2023-03-01T05:58:58;100938.44;;;-3.33
49154;BMP280;49455;52.252;9.124;2023-03-01T06:03:58;100948.63;;;-3.17
49154;BMP280;49455;52.252;9.124;2023-03-01T06:08:59;100945.03;;;-3.19
49154;BMP280;49455;52.252;9.124;2023-03-01T06:13:59;100954.56;;;-3.25
49154;BMP280;49455;52.252;9.124;2023-03-01T06:18:59;100955.41;;;-3.32
49154;BMP280;49455;52.252;9.124;2023-03-01T06:24:00;100969.06;;;-3.39
49154;BMP280;49455;52.252;9.124;2023-03-01T06:29:00;100965.22;;;-3.44
49154;BMP280;49455;52.252;9.124;2023-03-01T06:34:01;100969.78;;;-3.48
49154;BMP280;49455;52.252;9.124;2023-03-01T06:39:01;100960.72;;;-3.55
49154;BMP280;49455;52.252;9.124;2023-03-01T06:44:02;100961.59;;;-3.54
49154;BMP280;49455;52.252;9.124;2023-03-01T06:49:02;100951.63;;;-3.61
49154;BMP280;49455;52.252;9.124;2023-03-01T06:54:04;100949.88;;;-3.45
49154;BMP280;49455;52.252;9.124;2023-03-01T06:59:05;100942.63;;;-3.34
49154;BMP280;49455;52.252;9.124;2023-03-01T07:04:05;100960.50;;;-3.16
49154;BMP280;49455;52.252;9.124;2023-03-01T07:09:05;100955.75;;;-3.13
49154;BMP280;49455;52.252;9.124;2023-03-01T07:14:06;100944.59;;;-3.06
49154;BMP280;49455;52.252;9.124;2023-03-01T07:19:06;100947.13;;;-2.98
49154;BMP280;49455;52.252;9.124;2023-03-01T07:24:08;100937.16;;;-2.88
49154;BMP280;49455;52.252;9.124;2023-03-01T07:29:09;100938.97;;;-2.79
49154;BMP280;49455;52.252;9.124;2023-03-01T07:34:10;100936.44;;;-2.71
49154;BMP280;49455;52.252;9.124;2023-03-01T07:39:11;100927.34;;;-2.52
49154;BMP280;49455;52.252;9.124;2023-03-01T07:44:11;100927.13;;;-2.28
49154;BMP280;49455;52.252;9.124;2023-03-01T07:49:11;100918.50;;;-2.22
49154;BMP280;49455;52.252;9.124;2023-03-01T07:54:12;100919.75;;;-2.09
49154;BMP280;49455;52.252;9.124;2023-03-01T07:59:12;100928.34;;;-1.90
49154;BMP280;49455;52.252;9.124;2023-03-01T08:04:13;100921.91;;;-1.78
49154;BMP280;49455;52.252;9.124;2023-03-01T08:09:13;100920.47;;;-1.66
49154;BMP280;49455;52.252;9.124;2023-03-01T08:14:14;100920.28;;;-1.51
49154;BMP280;49455;52.252;9.124;2023-03-01T08:19:14;100916.59;;;-1.36
49154;BMP280;49455;52.252;9.124;2023-03-01T08:24:15;100915.25;;;-1.15
49154;BMP280;49455;52.252;9.124;2023-03-01T08:29:15;100919.84;;;-0.92
49154;BMP280;49455;52.252;9.124;2023-03-01T08:34:16;100914.56;;;-0.86
49154;BMP280;49455;52.252;9.124;2023-03-01T08:39:18;100916.00;;;-0.79
49154;BMP280;49455;52.252;9.124;2023-03-01T08:44:19;100910.84;;;-0.71
49154;BMP280;49455;52.252;9.124;2023-03-01T08:49:20;100908.47;;;-0.69
49154;BMP280;49455;52.252;9.124;2023-03-01T08:54:21;100916.88;;;-0.61
49154;BMP280;49455;52.252;9.124;2023-03-01T08:59:22;100918.53;;;-0.43
49154;BMP280;49455;52.252;9.124;2023-03-01T09:04:22;100907.75;;;-0.40
49154;BMP280;49455;52.252;9.124;2023-03-01T09:09:22;100899.94;;;-0.24
49154;BMP280;49455;52.252;9.124;2023-03-01T09:14:23;100896.31;;;0.02
49154;BMP280;49455;52.252;9.124;2023-03-01T09:19:23;100897.50;;;0.16
49154;BMP280;49455;52.252;9.124;2023-03-01T09:24:24;100902.59;;;0.16
49154;BMP280;49455;52.252;9.124;2023-03-01T09:29:25;100894.47;;;0.29
49154;BMP280;49455;52.252;9.124;2023-03-01T09:34:25;100890.06;;;0.57
49154;BMP280;49455;52.252;9.124;2023-03-01T09:39:26;100888.41;;;0.67
49154;BMP280;49455;52.252;9.124;2023-03-01T09:49:33;100874.53;;;1.03
49154;BMP280;49455;52.252;9.124;2023-03-01T09:54:35;100857.03;;;1.27
49154;BMP280;49455;52.252;9.124;2023-03-01T10:00:02;100859.16;;;1.52
49154;BMP280;49455;52.252;9.124;2023-03-01T10:10:29;100860.50;;;2.10
49154;BMP280;49455;52.252;9.124;2023-03-01T10:15:39;100847.69;;;2.41
49154;BMP280;49455;52.252;9.124;2023-03-01T10:20:56;100853.31;;;2.81
49154;BMP280;49455;52.252;9.124;2023-03-01T10:31:12;100846.72;;;3.51
49154;BMP280;49455;52.252;9.124;2023-03-01T10:36:13;100850.00;;;3.84
49154;BMP280;49455;52.252;9.124;2023-03-01T10:41:14;100842.34;;;4.20
49154;BMP280;49455;52.252;9.124;2023-03-01T10:46:29;100850.00;;;4.31
49154;BMP280;49455;52.252;9.124;2023-03-01T10:51:30;100847.78;;;4.24
49154;BMP280;49455;52.252;9.124;2023-03-01T10:56:46;100838.38;;;4.60
49154;BMP280;49455;52.252;9.124;2023-03-01T11:02:22;100824.75;;;4.72
49154;BMP280;49455;52.252;9.124;2023-03-01T11:07:21;100831.78;;;4.87
49154;BMP280;49455;52.252;9.124;2023-03-01T11:12:21;100828.75;;;5.06
49154;BMP280;49455;52.252;9.124;2023-03-01T11:17:28;100838.56;;;4.87
49154;BMP280;49455;52.252;9.124;2023-03-01T11:22:30;100834.84;;;4.95
49154;BMP280;49455;52.252;9.124;2023-03-01T11:27:32;100827.66;;;5.02
49154;BMP280;49455;52.252;9.124;2023-03-01T11:32:41;100817.75;;;5.45
49154;BMP280;49455;52.252;9.124;2023-03-01T11:43:09;100814.56;;;5.62
49154;BMP280;49455;52.252;9.124;2023-03-01T11:54:09;100789.53;;;6.37
49154;BMP280;49455;52.252;9.124;2023-03-01T12:04:27;100781.31;;;6.16
49154;BMP280;49455;52.252;9.124;2023-03-01T12:25:41;100759.72;;;6.54
49154;BMP280;49455;52.252;9.124;2023-03-01T12:46:14;100732.81;;;7.04
49154;BMP280;49455;52.252;9.124;2023-03-01T12:51:19;100718.31;;;7.06
49154;BMP280;49455;52.252;9.124;2023-03-01T12:56:27;100704.69;;;6.93
49154;BMP280;49455;52.252;9.124;2023-03-01T13:07:14;100698.44;;;7.32
49154;BMP280;49455;52.252;9.124;2023-03-01T13:13:35;100688.41;;;7.07
49154;BMP280;49455;52.252;9.124;2023-03-01T13:23:33;100681.19;;;7.46
49154;BMP280;49455;52.252;9.124;2023-03-01T13:38:46;100669.00;;;7.73
49154;BMP280;49455;52.252;9.124;2023-03-01T13:43:47;100663.84;;;7.73
49154;BMP280;49455;52.252;9.124;2023-03-01T13:48:54;100655.00;;;7.68
49154;BMP280;49455;52.252;9.124;2023-03-01T13:53:57;100663.47;;;7.36
49154;BMP280;49455;52.252;9.124;2023-03-01T13:59:01;100658.13;;;7.01
49154;BMP280;49455;52.252;9.124;2023-03-01T14:04:03;100660.56;;;7.00
49154;BMP280;49455;52.252;9.124;2023-03-01T14:09:29;100648.81;;;7.19
49154;BMP280;49455;52.252;9.124;2023-03-01T14:20:03;100655.88;;;6.93
49154;BMP280;49455;52.252;9.124;2023-03-01T14:25:33;100648.41;;;7.12
49154;BMP280;49455;52.252;9.124;2023-03-01T14:30:38;100642.38;;;7.11
49154;BMP280;49455;52.252;9.124;2023-03-01T14:35:40;100632.19;;;6.83
49154;BMP280;49455;52.252;9.124;2023-03-01T14:40:42;100626.72;;;6.63
49154;BMP280;49455;52.252;9.124;2023-03-01T14:45:47;100624.31;;;6.80
49154;BMP280;49455;52.252;9.124;2023-03-01T14:50:49;100613.00;;;7.22
49154;BMP280;49455;52.252;9.124;2023-03-01T14:55:53;100608.69;;;6.77
49154;BMP280;49455;52.252;9.124;2023-03-01T15:01:03;100607.50;;;6.70
49154;BMP280;49455;52.252;9.124;2023-03-01T15:06:06;100601.19;;;6.80
49154;BMP280;49455;52.252;9.124;2023-03-01T15:16:15;100589.53;;;6.56
49154;BMP280;49455;52.252;9.124;2023-03-01T15:21:30;100580.56;;;6.78
49154;BMP280;49455;52.252;9.124;2023-03-01T15:26:37;100580.81;;;6.83
49154;BMP280;49455;52.252;9.124;2023-03-01T15:31:38;100584.72;;;6.76
49154;BMP280;49455;52.252;9.124;2023-03-01T15:36:44;100570.81;;;6.73
49154;BMP280;49455;52.252;9.124;2023-03-01T15:41:48;100579.03;;;6.37
49154;BMP280;49455;52.252;9.124;2023-03-01T15:46:48;100564.38;;;6.21
49154;BMP280;49455;52.252;9.124;2023-03-01T15:51:54;100556.28;;;6.43
49154;BMP280;49455;52.252;9.124;2023-03-01T15:56:55;100553.13;;;6.19
49154;BMP280;49455;52.252;9.124;2023-03-01T16:01:55;100546.59;;;6.09
49154;BMP280;49455;52.252;9.124;2023-03-01T16:06:55;100547.03;;;6.03
49154;BMP280;49455;52.252;9.124;2023-03-01T16:11:56;100545.06;;;5.84
49154;BMP280;49455;52.252;9.124;2023-03-01T16:16:56;100546.28;;;5.76
49154;BMP280;49455;52.252;9.124;2023-03-01T16:21:57;100546.59;;;5.54
49154;BMP280;49455;52.252;9.124;2023-03-01T16:26:57;100542.00;;;5.48
49154;BMP280;49455;52.252;9.124;2023-03-01T16:32:01;100537.63;;;5.33
49154;BMP280;49455;52.252;9.124;2023-03-01T16:37:01;100531.75;;;5.21
49154;BMP280;49455;52.252;9.124;2023-03-01T16:42:02;100544.22;;;5.15
49154;BMP280;49455;52.252;9.124;2023-03-01T16:47:02;100550.81;;;4.85
49154;BMP280;49455;52.252;9.124;2023-03-01T16:52:03;100553.38;;;4.72
49154;BMP280;49455;52.252;9.124;2023-03-01T16:57:03;100547.50;;;4.60
49154;BMP280;49455;52.252;9.124;2023-03-01T17:02:04;100559.22;;;4.44
49154;BMP280;49455;52.252;9.124;2023-03-01T17:07:05;100558.22;;;4.29
49154;BMP280;49455;52.252;9.124;2023-03-01T17:12:05;100555.97;;;4.08
49154;BMP280;49455;52.252;9.124;2023-03-01T17:17:06;100561.25;;;3.86
49154;BMP280;49455;52.252;9.124;2023-03-01T17:22:06;100575.63;;;3.60
49154;BMP280;49455;52.252;9.124;2023-03-01T17:27:07;100577.50;;;3.38
49154;BMP280;49455;52.252;9.124;2023-03-01T17:32:08;100583.59;;;3.16
49154;BMP280;49455;52.252;9.124;2023-03-01T17:37:09;100588.28;;;3.10
49154;BMP280;49455;52.252;9.124;2023-03-01T17:42:09;100582.97;;;3.07
49154;BMP280;49455;52.252;9.124;2023-03-01T17:47:10;100586.06;;;3.03
49154;BMP280;49455;52.252;9.124;2023-03-01T17:52:10;100596.28;;;3.14
49154;BMP280;49455;52.252;9.124;2023-03-01T17:57:11;100593.59;;;3.13
49154;BMP280;49455;52.252;9.124;2023-03-01T18:02:12;100597.66;;;2.98
49154;BMP280;49455;52.252;9.124;2023-03-01T18:07:12;100590.97;;;3.00
49154;BMP280;49455;52.252;9.124;2023-03-01T18:12:12;100590.97;;;3.00
49154;BMP280;49455;52.252;9.124;2023-03-01T18:17:13;100588.00;;;2.94
49154;BMP280;49455;52.252;9.124;2023-03-01T18:22:13;100584.75;;;2.97
49154;BMP280;49455;52.252;9.124;2023-03-01T18:27:14;100580.53;;;2.97
49154;BMP280;49455;52.252;9.124;2023-03-01T18:32:15;100570.47;;;2.99
49154;BMP280;49455;52.252;9.124;2023-03-01T18:37:15;100571.88;;;2.95
49154;BMP280;49455;52.252;9.124;2023-03-01T18:42:15;100567.69;;;2.84
49154;BMP280;49455;52.252;9.124;2023-03-01T18:47:16;100568.28;;;2.80
49154;BMP280;49455;52.252;9.124;2023-03-01T18:52:16;100571.53;;;2.67
49154;BMP280;49455;52.252;9.124;2023-03-01T18:57:16;100572.00;;;2.50
49154;BMP280;49455;52.252;9.124;2023-03-01T19:02:17;100578.97;;;2.18
49154;BMP280;49455;52.252;9.124;2023-03-01T19:07:17;100579.78;;;2.17
49154;BMP280;49455;52.252;9.124;2023-03-01T19:12:18;100579.56;;;2.14
49154;BMP280;49455;52.252;9.124;2023-03-01T19:17:21;100580.31;;;2.13
49154;BMP280;49455;52.252;9.124;2023-03-01T19:22:22;100581.97;;;2.02
49154;BMP280;49455;52.252;9.124;2023-03-01T19:27:22;100576.66;;;1.87
49154;BMP280;49455;52.252;9.124;2023-03-01T19:32:23;100589.94;;;1.95
49154;BMP280;49455;52.252;9.124;2023-03-01T19:37:23;100576.66;;;1.99
49154;BMP280;49455;52.252;9.124;2023-03-01T19:42:24;100583.50;;;2.00
49154;BMP280;49455;52.252;9.124;2023-03-01T19:47:24;100584.84;;;1.95
49154;BMP280;49455;52.252;9.124;2023-03-01T19:52:24;100578.19;;;1.97
49154;BMP280;49455;52.252;9.124;2023-03-01T19:57:25;100584.53;;;2.02
49154;BMP280;49455;52.252;9.124;2023-03-01T20:02:25;100578.41;;;1.88
49154;BMP280;49455;52.252;9.124;2023-03-01T20:07:26;100583.06;;;1.82
49154;BMP280;49455;52.252;9.124;2023-03-01T20:12:26;100580.47;;;1.60
49154;BMP280;49455;52.252;9.124;2023-03-01T20:17:27;100582.63;;;1.88
49154;BMP280;49455;52.252;9.124;2023-03-01T20:22:27;100579.28;;;1.89
49154;BMP280;49455;52.252;9.124;2023-03-01T20:27:27;100574.09;;;1.99
49154;BMP280;49455;52.252;9.124;2023-03-01T20:32:29;100582.75;;;2.12
49154;BMP280;49455;52.252;9.124;2023-03-01T20:37:29;100576.56;;;2.20
49154;BMP280;49455;52.252;9.124;2023-03-01T20:42:30;100587.94;;;2.02
49154;BMP280;49455;52.252;9.124;2023-03-01T20:47:30;100582.84;;;2.02
49154;BMP280;49455;52.252;9.124;2023-03-01T20:52:31;100587.97;;;1.58
49154;BMP280;49455;52.252;9.124;2023-03-01T20:57:31;100586.97;;;1.24
49154;BMP280;49455;52.252;9.124;2023-03-01T21:02:32;100586.41;;;1.17
49154;BMP280;49455;52.252;9.124;2023-03-01T21:07:32;100573.53;;;1.15
49154;BMP280;49455;52.252;9.124;2023-03-01T21:12:32;100576.38;;;1.08
49154;BMP280;49455;52.252;9.124;2023-03-01T21:17:33;100577.06;;;0.85
49154;BMP280;49455;52.252;9.124;2023-03-01T21:22:33;100585.06;;;0.58
49154;BMP280;49455;52.252;9.124;2023-03-01T21:27:37;100585.03;;;0.37
49154;BMP280;49455;52.252;9.124;2023-03-01T21:32:38;100575.16;;;0.20
49154;BMP280;49455;52.252;9.124;2023-03-01T21:37:38;100580.75;;;0.16
49154;BMP280;49455;52.252;9.124;2023-03-01T21:42:38;100577.38;;;0.06
49154;BMP280;49455;52.252;9.124;2023-03-01T21:47:39;100569.66;;;-0.05
49154;BMP280;49455;52.252;9.124;2023-03-01T21:52:39;100570.94;;;-0.10
49154;BMP280;49455;52.252;9.124;2023-03-01T21:57:39;100579.44;;;-0.10
49154;BMP280;49455;52.252;9.124;2023-03-01T22:02:40;100566.88;;;-0.18
49154;BMP280;49455;52.252;9.124;2023-03-01T22:07:40;100569.03;;;-0.23
49154;BMP280;49455;52.252;9.124;2023-03-01T22:12:40;100580.59;;;-0.36
49154;BMP280;49455;52.252;9.124;2023-03-01T22:17:41;100578.44;;;-0.41
49154;BMP280;49455;52.252;9.124;2023-03-01T22:22:41;100575.16;;;-0.50
49154;BMP280;49455;52.252;9.124;2023-03-01T22:27:42;100566.91;;;-0.58
49154;BMP280;49455;52.252;9.124;2023-03-01T22:32:42;100564.00;;;-0.62
49154;BMP280;49455;52.252;9.124;2023-03-01T22:37:42;100564.50;;;-0.56
49154;BMP280;49455;52.252;9.124;2023-03-01T22:42:43;100559.66;;;-0.63
49154;BMP280;49455;52.252;9.124;2023-03-01T22:47:43;100553.84;;;-0.72
49154;BMP280;49455;52.252;9.124;2023-03-01T22:52:44;100543.44;;;-0.85
49154;BMP280;49455;52.252;9.124;2023-03-01T22:57:48;100534.41;;;-0.32
49154;BMP280;49455;52.252;9.124;2023-03-01T23:02:49;100513.94;;;0.17
49154;BMP280;49455;52.252;9.124;2023-03-01T23:07:49;100528.06;;;0.45
49154;BMP280;49455;52.252;9.124;2023-03-01T23:12:50;100527.16;;;0.44
49154;BMP280;49455;52.252;9.124;2023-03-01T23:17:52;100518.41;;;0.62
49154;BMP280;49455;52.252;9.124;2023-03-01T23:22:53;100499.88;;;0.63
49154;BMP280;49455;52.252;9.124;2023-03-01T23:27:53;100519.53;;;0.44
49154;BMP280;49455;52.252;9.124;2023-03-01T23:32:54;100524.81;;;0.26
49154;BMP280;49455;52.252;9.124;2023-03-01T23:37:54;100529.66;;;-0.08
49154;BMP280;49455;52.252;9.124;2023-03-01T23:42:54;100533.78;;;-0.39
49154;BMP280;49455;52.252;9.124;2023-03-01T23:47:55;100521.84;;;-0.50
49154;BMP280;49455;52.252;9.124;2023-03-01T23:52:55;100533.56;;;-0.62
49154;BMP280;49455;52.252;9.124;2023-03-01T23:57:56;100542.31;;;-0.78
